createdAt,value
2023-05-04T00:01:06.554Z,3.97
2023-05-04T00:03:34.157Z,4.30
2023-05-04T00:06:04.443Z,2.30
2023-05-04T00:08:32.445Z,1.20
2023-05-04T00:10:59.938Z,2.08
2023-05-04T00:13:27.492Z,1.70
2023-05-04T00:15:55.059Z,1.50
2023-05-04T00:18:22.643Z,1.98
2023-05-04T00:20:50.207Z,1.63
2023-05-04T00:23:17.885Z,1.50
2023-05-04T00:25:45.552Z,1.65
2023-05-04T00:28:13.543Z,2.45
2023-05-04T00:30:41.018Z,1.60
2023-05-04T00:33:08.746Z,0.98
2023-05-04T00:35:36.649Z,1.20
2023-05-04T00:38:07.996Z,1.58
2023-05-04T00:40:35.937Z,1.55
2023-05-04T00:43:06.445Z,5.30
2023-05-04T00:45:34.272Z,1.67
2023-05-04T00:48:02.483Z,2.08
2023-05-04T00:50:30.377Z,0.80
2023-05-04T00:52:59.853Z,1.08
2023-05-04T00:55:27.401Z,1.63
2023-05-04T00:57:54.985Z,1.42
2023-05-04T01:00:25.194Z,1.42
2023-05-04T01:02:52.777Z,2.10
2023-05-04T01:05:20.364Z,2.30
2023-05-04T01:07:50.833Z,2.65
2023-05-04T01:10:37.372Z,2.53
2023-05-04T01:13:13.375Z,1.58
2023-05-04T01:15:41.210Z,0.98
2023-05-04T01:18:08.811Z,2.67
2023-05-04T01:20:36.683Z,1.63
2023-05-04T01:23:07.390Z,1.92
2023-05-04T01:25:47.030Z,3.78
2023-05-04T01:28:21.319Z,1.60
2023-05-04T01:30:52.090Z,1.40
2023-05-04T01:33:20.817Z,2.10
2023-05-04T01:35:48.488Z,1.70
2023-05-04T01:38:16.640Z,1.75
2023-05-04T01:40:44.574Z,2.45
2023-05-04T01:43:12.458Z,4.15
2023-05-04T01:45:39.973Z,4.93
2023-05-04T01:48:10.605Z,1.13
2023-05-04T01:50:38.330Z,1.38
2023-05-04T01:53:06.880Z,1.65
2023-05-04T01:55:34.417Z,2.30
2023-05-04T01:58:03.147Z,2.00
2023-05-04T02:00:30.613Z,3.10
2023-05-04T02:02:58.131Z,1.50
2023-05-04T02:05:26.438Z,2.15
2023-05-04T02:07:53.944Z,1.30
2023-05-04T02:10:21.498Z,2.35
2023-05-04T02:12:52.002Z,1.30
2023-05-04T02:15:20.660Z,2.55
2023-05-04T02:17:48.248Z,1.15
2023-05-04T02:20:16.503Z,1.52
2023-05-04T02:22:44.347Z,2.75
2023-05-04T02:25:11.937Z,1.70
2023-05-04T02:27:39.422Z,2.75
2023-05-04T02:30:07.413Z,2.45
2023-05-04T02:32:35.076Z,5.78
2023-05-04T02:35:05.472Z,2.05
2023-05-04T02:37:32.983Z,1.55
2023-05-04T02:40:00.501Z,1.67
2023-05-04T02:42:28.023Z,2.80
2023-05-04T02:44:55.498Z,1.42
2023-05-04T02:47:23.017Z,1.95
2023-05-04T02:49:50.782Z,3.63
2023-05-04T02:52:18.233Z,1.70
2023-05-04T02:54:46.905Z,1.63
2023-05-04T02:57:14.531Z,1.58
2023-05-04T02:59:42.038Z,2.65
2023-05-04T03:02:09.549Z,1.92
2023-05-04T03:04:37.102Z,1.38
2023-05-04T03:07:04.626Z,1.20
2023-05-04T03:09:32.181Z,1.15
2023-05-04T03:11:59.814Z,1.40
2023-05-04T03:14:27.428Z,1.80
2023-05-04T03:16:55.012Z,2.22
2023-05-04T03:19:22.813Z,2.55
2023-05-04T03:21:50.885Z,1.58
2023-05-04T03:24:18.773Z,1.27
2023-05-04T03:26:47.699Z,1.75
2023-05-04T03:29:15.200Z,1.85
2023-05-04T03:31:42.794Z,3.22
2023-05-04T03:34:13.098Z,3.35
2023-05-04T03:36:40.578Z,0.98
2023-05-04T03:39:08.788Z,1.95
2023-05-04T03:41:36.235Z,1.40
2023-05-04T03:44:04.086Z,1.50
2023-05-04T03:46:31.710Z,1.40
2023-05-04T03:48:59.302Z,1.60
2023-05-04T03:51:27.005Z,1.65
2023-05-04T03:53:54.642Z,3.35
2023-05-04T03:56:22.767Z,1.27
2023-05-04T03:58:50.258Z,1.15
2023-05-04T04:01:17.772Z,1.35
2023-05-04T04:03:45.318Z,1.23
2023-05-04T04:06:14.114Z,0.82
2023-05-04T04:08:41.745Z,2.20
2023-05-04T04:11:09.320Z,1.88
2023-05-04T04:13:36.833Z,0.70
2023-05-04T04:16:04.396Z,1.88
2023-05-04T04:18:32.288Z,1.50
2023-05-04T04:20:59.837Z,2.15
2023-05-04T04:23:27.529Z,1.33
2023-05-04T04:25:54.982Z,2.25
2023-05-04T04:28:22.798Z,0.95
2023-05-04T04:30:50.298Z,1.63
2023-05-04T04:33:17.846Z,0.90
2023-05-04T04:35:45.484Z,0.98
2023-05-04T04:38:13.131Z,0.95
2023-05-04T04:40:40.768Z,3.47
2023-05-04T04:43:08.391Z,2.15
2023-05-04T04:45:36.384Z,1.10
2023-05-04T04:48:04.854Z,1.02
2023-05-04T04:50:32.908Z,2.92
2023-05-04T04:53:00.738Z,0.73
2023-05-04T04:55:28.171Z,0.85
2023-05-04T04:57:56.324Z,1.08
2023-05-04T05:00:24.736Z,1.30
2023-05-04T05:02:52.273Z,1.25
2023-05-04T05:05:19.826Z,1.85
2023-05-04T05:07:47.321Z,1.38
2023-05-04T05:10:14.891Z,1.30
2023-05-04T05:12:42.442Z,1.27
2023-05-04T05:15:10.373Z,2.17
2023-05-04T05:17:38.219Z,1.20
2023-05-04T05:20:12.834Z,1.23
2023-05-04T05:22:40.952Z,1.05
2023-05-04T05:25:09.124Z,3.63
2023-05-04T05:27:37.420Z,1.95
2023-05-04T05:30:06.300Z,1.02
2023-05-04T05:32:34.268Z,2.63
2023-05-04T05:35:01.922Z,1.70
2023-05-04T05:37:29.904Z,0.95
2023-05-04T05:39:57.434Z,0.70
2023-05-04T05:42:25.159Z,2.65
2023-05-04T05:44:53.001Z,1.60
2023-05-04T05:47:20.895Z,1.35
2023-05-04T05:49:48.413Z,1.13
2023-05-04T05:52:15.887Z,2.60
2023-05-04T05:54:43.593Z,0.90
2023-05-04T05:57:11.293Z,0.90
2023-05-04T05:59:38.880Z,1.42
2023-05-04T06:02:06.859Z,2.08
2023-05-04T06:04:35.008Z,2.70
2023-05-04T06:07:02.512Z,2.13
2023-05-04T06:09:30.139Z,0.77
2023-05-04T06:11:58.285Z,1.23
2023-05-04T06:14:25.981Z,1.80
2023-05-04T06:16:53.610Z,1.23
2023-05-04T06:19:21.333Z,0.98
2023-05-04T06:21:50.419Z,1.25
2023-05-04T06:24:18.165Z,3.70
2023-05-04T06:26:45.693Z,1.17
2023-05-04T06:29:13.133Z,1.70
2023-05-04T06:31:41.299Z,1.67
2023-05-04T06:34:08.830Z,1.05
2023-05-04T06:36:36.982Z,2.22
2023-05-04T06:39:09.837Z,1.25
2023-05-04T06:41:37.912Z,2.92
2023-05-04T06:44:05.559Z,1.15
2023-05-04T06:46:38.188Z,1.27
2023-05-04T06:49:06.174Z,1.80
2023-05-04T06:51:36.887Z,1.08
2023-05-04T06:54:04.472Z,1.90
2023-05-04T06:56:32.294Z,1.23
2023-05-04T06:59:00.040Z,1.45
2023-05-04T07:01:28.152Z,1.67
2023-05-04T07:03:59.109Z,1.20
2023-05-04T07:06:27.886Z,1.55
2023-05-04T07:08:55.540Z,1.88
2023-05-04T07:11:23.199Z,1.00
2023-05-04T07:13:50.683Z,2.92
2023-05-04T07:16:18.153Z,1.13
2023-05-04T07:18:45.919Z,1.25
2023-05-04T07:23:43.887Z,1.58
2023-05-04T07:26:11.367Z,1.52
2023-05-04T07:28:39.345Z,1.30
2023-05-04T07:31:06.832Z,1.65
2023-05-04T07:33:34.383Z,1.77
2023-05-04T07:36:02.117Z,1.00
2023-05-04T07:38:30.254Z,0.93
2023-05-04T07:41:00.894Z,2.72
2023-05-04T07:43:28.396Z,1.38
2023-05-04T07:45:55.908Z,1.73
2023-05-04T07:48:26.004Z,1.90
2023-05-04T07:50:54.750Z,1.02
2023-05-04T07:53:22.864Z,2.20
2023-05-04T07:55:50.366Z,1.25
2023-05-04T07:58:17.922Z,1.40
2023-05-04T08:00:48.459Z,1.10
2023-05-04T08:03:16.230Z,1.13
2023-05-04T08:05:43.710Z,2.78
2023-05-04T08:08:11.261Z,1.02
2023-05-04T08:10:39.155Z,7.40
2023-05-04T08:13:06.746Z,1.77
2023-05-04T08:15:34.322Z,1.10
2023-05-04T08:18:01.920Z,1.55
2023-05-04T08:20:29.449Z,1.45
2023-05-04T08:22:56.983Z,1.92
2023-05-04T08:25:24.657Z,1.42
2023-05-04T08:27:52.374Z,1.40
2023-05-04T08:30:20.147Z,1.17
2023-05-04T08:32:48.996Z,1.48
2023-05-04T08:35:16.817Z,2.85
2023-05-04T08:37:44.300Z,1.55
2023-05-04T08:40:12.576Z,0.80
2023-05-04T08:42:41.046Z,1.98
2023-05-04T08:45:09.160Z,0.80
2023-05-04T08:47:36.722Z,1.63
2023-05-04T08:50:05.298Z,0.98
2023-05-04T08:52:33.009Z,3.90
2023-05-04T08:55:00.954Z,1.25
2023-05-04T08:57:28.667Z,1.13
2023-05-04T08:59:56.613Z,1.23
2023-05-04T09:02:25.038Z,3.75
2023-05-04T09:04:53.831Z,5.55
2023-05-04T09:07:23.315Z,1.48
2023-05-04T09:09:53.656Z,1.40
2023-05-04T09:12:21.397Z,1.77
2023-05-04T09:14:48.910Z,2.10
2023-05-04T09:17:26.306Z,2.25
2023-05-04T09:20:03.788Z,2.55
2023-05-04T09:22:31.916Z,2.90
2023-05-04T09:25:09.947Z,3.15
2023-05-04T09:27:37.565Z,2.15
2023-05-04T09:30:06.103Z,0.73
2023-05-04T09:32:37.533Z,1.45
2023-05-04T09:35:10.724Z,1.40
2023-05-04T09:37:47.807Z,1.52
2023-05-04T09:40:16.293Z,1.83
2023-05-04T09:42:43.930Z,2.75
2023-05-04T09:45:11.999Z,1.85
2023-05-04T09:47:40.682Z,1.17
2023-05-04T09:50:23.086Z,3.33
2023-05-04T09:52:51.072Z,1.20
2023-05-04T09:55:19.460Z,3.35
2023-05-04T09:57:48.282Z,3.10
2023-05-04T10:00:19.498Z,2.60
2023-05-04T10:02:47.623Z,5.90
2023-05-04T10:05:16.774Z,5.13
2023-05-04T10:07:47.407Z,12.98
2023-05-04T10:10:15.454Z,10.13
2023-05-04T10:12:45.156Z,14.85
2023-05-04T10:15:13.142Z,16.70
2023-05-04T10:17:50.878Z,15.65
2023-05-04T10:20:18.337Z,3.42
2023-05-04T10:22:48.859Z,5.28
2023-05-04T10:25:20.587Z,17.10
2023-05-04T10:28:08.298Z,10.00
2023-05-04T10:30:35.943Z,7.65
2023-05-04T10:33:05.599Z,14.23
2023-05-04T10:35:33.474Z,12.07
2023-05-04T10:38:01.440Z,8.43
2023-05-04T10:40:34.840Z,35.38
2023-05-04T10:43:03.553Z,24.05
2023-05-04T10:45:41.386Z,12.35
2023-05-04T10:48:10.015Z,47.13
2023-05-04T10:50:47.669Z,29.17
2023-05-04T10:53:16.221Z,22.65
2023-05-04T10:55:47.371Z,19.13
2023-05-04T10:58:17.344Z,11.75
2023-05-04T11:00:46.432Z,30.60
2023-05-04T11:03:14.876Z,38.45
2023-05-04T11:05:43.916Z,29.92
2023-05-04T11:08:17.381Z,6.88
2023-05-04T11:10:45.235Z,16.15
2023-05-04T11:13:13.095Z,29.65
2023-05-04T11:15:47.752Z,18.70
2023-05-04T11:18:16.541Z,11.80
2023-05-04T11:20:45.383Z,3.83
2023-05-04T11:23:16.793Z,6.63
2023-05-04T11:25:44.244Z,4.28
2023-05-04T11:28:14.261Z,3.97
2023-05-04T11:30:44.689Z,6.10
2023-05-04T11:33:13.588Z,12.40
2023-05-04T11:35:42.752Z,10.63
2023-05-04T11:38:10.759Z,2.38
2023-05-04T11:40:41.642Z,3.00
2023-05-04T11:43:11.636Z,8.68
2023-05-04T11:45:40.832Z,6.22
2023-05-04T11:48:09.356Z,2.95
2023-05-04T11:50:37.085Z,12.65
2023-05-04T11:53:10.692Z,4.13
2023-05-04T11:55:38.776Z,3.38
2023-05-04T11:58:12.640Z,7.70
2023-05-04T12:00:43.888Z,4.78
2023-05-04T12:03:16.321Z,1.77
2023-05-04T12:05:51.571Z,2.25
2023-05-04T12:08:42.597Z,5.90
2023-05-04T12:11:26.337Z,1.30
2023-05-04T12:14:07.596Z,1.58
2023-05-04T12:16:35.300Z,10.18
2023-05-04T12:19:13.589Z,10.25
2023-05-04T12:21:54.077Z,10.10
2023-05-04T12:24:25.488Z,7.43
2023-05-04T12:26:53.220Z,2.13
2023-05-04T12:29:20.808Z,3.90
2023-05-04T12:31:50.698Z,2.25
2023-05-04T12:34:18.246Z,3.53
2023-05-04T12:36:45.726Z,3.40
2023-05-04T12:39:13.448Z,3.05
2023-05-04T12:41:41.210Z,4.03
2023-05-04T12:44:09.796Z,3.72
2023-05-04T12:46:37.803Z,5.90
2023-05-04T12:49:05.694Z,2.40
2023-05-04T12:51:33.355Z,3.33
2023-05-04T12:54:01.165Z,2.00
2023-05-04T12:56:31.648Z,6.68
2023-05-04T12:58:59.228Z,2.30
2023-05-04T13:01:28.252Z,13.02
2023-05-04T13:03:55.822Z,1.90
2023-05-04T13:06:23.396Z,3.90
2023-05-04T13:08:50.879Z,6.65
2023-05-04T13:11:21.538Z,2.88
2023-05-04T13:13:49.132Z,3.08
2023-05-04T13:16:17.779Z,1.38
2023-05-04T13:18:45.299Z,4.63
2023-05-04T13:21:13.631Z,4.68
2023-05-04T13:23:41.075Z,1.65
2023-05-04T13:26:08.615Z,1.13
2023-05-04T13:28:39.081Z,0.90
2023-05-04T13:31:07.112Z,8.13
2023-05-04T13:33:34.919Z,4.43
2023-05-04T13:36:03.814Z,2.58
2023-05-04T13:38:32.229Z,4.63
2023-05-04T13:40:59.850Z,2.65
2023-05-04T13:43:28.406Z,1.63
2023-05-04T13:45:57.833Z,1.33
2023-05-04T13:48:26.608Z,1.98
2023-05-04T13:50:54.142Z,9.30
2023-05-04T13:53:21.849Z,9.73
2023-05-04T13:55:50.035Z,2.55
2023-05-04T13:58:17.829Z,2.50
2023-05-04T14:00:47.936Z,1.20
2023-05-04T14:03:15.501Z,1.42
2023-05-04T14:05:43.183Z,2.17
2023-05-04T14:08:10.569Z,2.47
2023-05-04T14:10:38.792Z,1.13
2023-05-04T14:13:06.647Z,6.22
2023-05-04T14:15:34.357Z,1.65
2023-05-04T14:18:02.181Z,2.10
2023-05-04T14:20:29.715Z,0.90
2023-05-04T14:22:57.301Z,1.50
2023-05-04T14:25:24.967Z,7.57
2023-05-04T14:27:52.758Z,2.13
2023-05-04T14:30:38.304Z,0.93
2023-05-04T14:33:05.891Z,2.55
2023-05-04T14:35:33.761Z,1.95
2023-05-04T14:38:01.282Z,2.17
2023-05-04T14:40:31.304Z,2.35
2023-05-04T14:43:00.316Z,1.75
2023-05-04T14:45:27.869Z,1.30
2023-05-04T14:47:55.638Z,2.70
2023-05-04T14:50:23.278Z,1.75
2023-05-04T14:52:50.977Z,2.20
2023-05-04T14:55:18.525Z,1.70
2023-05-04T14:57:46.093Z,0.85
2023-05-04T15:00:14.443Z,1.67
2023-05-04T15:02:42.134Z,12.40
2023-05-04T15:05:12.981Z,1.75
2023-05-04T15:07:40.750Z,1.70
2023-05-04T15:10:08.812Z,2.55
2023-05-04T15:12:38.198Z,3.22
2023-05-04T15:15:05.916Z,3.42
2023-05-04T15:17:33.986Z,2.13
2023-05-04T15:20:02.755Z,2.75
2023-05-04T15:22:30.776Z,1.70
2023-05-04T15:24:58.710Z,5.63
2023-05-04T15:27:26.181Z,2.67
2023-05-04T15:29:53.868Z,0.80
2023-05-04T15:32:21.330Z,1.25
2023-05-04T15:34:57.446Z,1.92
2023-05-04T15:37:31.794Z,1.45
2023-05-04T15:40:01.886Z,0.70
2023-05-04T15:42:30.142Z,1.02
2023-05-04T15:44:57.672Z,1.02
2023-05-04T15:47:25.565Z,0.77
2023-05-04T15:49:53.316Z,2.20
2023-05-04T15:52:21.558Z,3.38
2023-05-04T15:54:49.319Z,2.38
2023-05-04T15:57:17.395Z,1.95
2023-05-04T15:59:45.143Z,1.98
2023-05-04T16:02:12.883Z,1.67
2023-05-04T16:04:40.417Z,0.63
2023-05-04T16:07:13.806Z,2.03
2023-05-04T16:09:41.438Z,0.70
2023-05-04T16:12:10.766Z,3.72
2023-05-04T16:14:39.412Z,2.72
2023-05-04T16:17:07.968Z,0.57
2023-05-04T16:19:35.464Z,1.20
2023-05-04T16:22:02.980Z,1.02
2023-05-04T16:24:30.616Z,4.97
2023-05-04T16:26:58.045Z,0.98
2023-05-04T16:29:25.506Z,4.03
2023-05-04T16:31:52.971Z,1.40
2023-05-04T16:34:20.437Z,0.70
2023-05-04T16:36:47.988Z,2.50
2023-05-04T16:39:15.515Z,1.02
2023-05-04T16:41:47.221Z,1.08
2023-05-04T16:44:16.293Z,1.77
2023-05-04T16:46:43.804Z,1.50
2023-05-04T16:49:14.342Z,0.75
2023-05-04T16:51:42.861Z,1.60
2023-05-04T16:54:10.418Z,6.47
2023-05-04T16:56:38.146Z,2.42
2023-05-04T16:59:05.906Z,1.15
2023-05-04T17:01:36.929Z,1.23
2023-05-04T17:04:04.757Z,1.73
2023-05-04T17:06:32.395Z,1.73
2023-05-04T17:09:00.201Z,1.42
2023-05-04T17:11:27.739Z,1.25
2023-05-04T17:13:56.617Z,1.15
2023-05-04T17:16:24.006Z,8.48
2023-05-04T17:22:13.492Z,1.88
2023-05-04T17:24:42.286Z,0.98
2023-05-04T17:27:12.502Z,9.65
2023-05-04T17:29:41.710Z,1.40
2023-05-04T17:32:09.402Z,0.80
2023-05-04T17:34:37.133Z,0.93
2023-05-04T17:37:04.877Z,0.90
2023-05-04T17:39:32.384Z,1.02
2023-05-04T17:42:00.085Z,3.30
2023-05-04T17:44:29.488Z,3.15
2023-05-04T17:46:57.132Z,1.13
2023-05-04T17:49:27.929Z,2.63
2023-05-04T17:51:57.070Z,1.30
2023-05-04T17:54:24.546Z,1.45
2023-05-04T17:56:52.047Z,1.83
2023-05-04T17:59:19.548Z,1.73
2023-05-04T18:01:48.278Z,1.60
2023-05-04T18:04:15.949Z,4.40
2023-05-04T18:06:43.736Z,1.23
2023-05-04T18:09:11.478Z,0.93
2023-05-04T18:11:38.985Z,3.47
2023-05-04T18:14:06.570Z,4.40
2023-05-04T18:16:41.303Z,1.23
2023-05-04T18:19:08.950Z,0.65
2023-05-04T18:21:39.615Z,1.08
2023-05-04T18:24:07.292Z,0.77
2023-05-04T18:26:36.260Z,1.75
2023-05-04T18:29:17.340Z,1.35
2023-05-04T18:31:47.286Z,1.13
2023-05-04T18:34:14.776Z,0.88
2023-05-04T18:36:46.868Z,0.98
2023-05-04T18:39:16.152Z,1.95
2023-05-04T18:41:43.824Z,0.80
2023-05-04T18:44:11.606Z,0.80
2023-05-04T18:46:39.231Z,1.63
2023-05-04T18:49:06.662Z,0.47
2023-05-04T18:51:34.189Z,1.02
2023-05-04T18:54:03.678Z,0.65
2023-05-04T18:56:33.859Z,0.50
2023-05-04T18:59:01.808Z,2.10
2023-05-04T19:01:29.516Z,0.90
2023-05-04T19:03:57.694Z,0.63
2023-05-04T19:06:25.207Z,0.88
2023-05-04T19:08:52.812Z,1.65
2023-05-04T19:11:23.153Z,2.92
2023-05-04T19:13:50.860Z,2.47
2023-05-04T19:16:18.560Z,0.43
2023-05-04T19:18:46.481Z,0.80
2023-05-04T19:21:14.153Z,0.60
2023-05-04T19:23:41.955Z,1.85
2023-05-04T19:26:09.894Z,1.35
2023-05-04T19:28:37.577Z,1.50
2023-05-04T19:31:05.104Z,5.30
2023-05-04T19:33:44.412Z,4.55
2023-05-04T19:36:15.448Z,3.40
2023-05-04T19:38:43.043Z,4.38
2023-05-04T19:41:10.572Z,1.88
2023-05-04T19:43:39.402Z,1.10
2023-05-04T19:46:07.928Z,1.60
2023-05-04T19:48:35.509Z,0.60
2023-05-04T19:51:03.477Z,0.50
2023-05-04T19:53:31.990Z,0.80
2023-05-04T19:55:59.994Z,0.82
2023-05-04T19:58:29.016Z,0.73
2023-05-04T20:00:56.964Z,0.75
2023-05-04T20:03:24.866Z,1.00
2023-05-04T20:05:53.064Z,0.55
2023-05-04T20:08:20.600Z,3.55
2023-05-04T20:10:48.060Z,1.77
2023-05-04T20:13:16.004Z,1.92
2023-05-04T20:15:43.600Z,1.13
2023-05-04T20:18:11.334Z,3.85
2023-05-04T20:20:38.823Z,1.33
2023-05-04T20:23:08.286Z,1.00
2023-05-04T20:25:35.979Z,0.50
2023-05-04T20:28:03.478Z,0.82
2023-05-04T20:30:31.063Z,0.98
2023-05-04T20:32:59.527Z,0.57
2023-05-04T20:35:27.109Z,0.90
2023-05-04T20:37:55.043Z,0.63
2023-05-04T20:40:23.413Z,0.88
2023-05-04T20:42:50.941Z,1.00
2023-05-04T20:45:18.746Z,0.90
2023-05-04T20:47:46.701Z,2.08
2023-05-04T20:50:19.324Z,0.35
2023-05-04T20:52:46.926Z,1.42
2023-05-04T20:55:14.674Z,0.90
2023-05-04T20:57:42.456Z,3.78
2023-05-04T21:00:10.579Z,0.73
2023-05-04T21:02:38.113Z,0.63
2023-05-04T21:05:06.106Z,0.95
2023-05-04T21:07:33.761Z,0.68
2023-05-04T21:10:01.246Z,1.48
2023-05-04T21:12:28.750Z,0.65
2023-05-04T21:14:56.155Z,0.40
2023-05-04T21:17:26.074Z,0.40
2023-05-04T21:19:53.650Z,2.13
2023-05-04T21:22:21.276Z,1.40
2023-05-04T21:24:48.754Z,1.33
2023-05-04T21:27:16.326Z,0.40
2023-05-04T21:29:43.829Z,0.82
2023-05-04T21:32:11.377Z,8.02
2023-05-04T21:34:39.086Z,1.83
2023-05-04T21:37:06.873Z,1.23
2023-05-04T21:39:34.501Z,1.05
2023-05-04T21:42:03.069Z,1.13
2023-05-04T21:44:33.463Z,3.70
2023-05-04T21:47:02.818Z,3.30
2023-05-04T21:49:30.329Z,3.13
2023-05-04T21:51:57.941Z,2.47
2023-05-04T21:54:26.372Z,2.28
2023-05-04T21:56:54.744Z,0.65
2023-05-04T21:59:22.292Z,1.23
2023-05-04T22:01:49.817Z,1.33
2023-05-04T22:04:17.803Z,0.50
2023-05-04T22:06:45.691Z,0.32
2023-05-04T22:09:14.138Z,0.77
2023-05-04T22:11:42.017Z,0.50
2023-05-04T22:14:09.590Z,0.68
2023-05-04T22:17:09.791Z,1.73
2023-05-04T22:19:50.093Z,0.30
2023-05-04T22:22:17.676Z,0.38
2023-05-04T22:24:45.259Z,1.08
2023-05-04T22:27:12.941Z,0.63
2023-05-04T22:29:40.627Z,0.43
2023-05-04T22:32:08.362Z,0.82
2023-05-04T22:34:36.190Z,0.40
2023-05-04T22:37:04.338Z,0.63
2023-05-04T22:39:31.868Z,0.40
2023-05-04T22:41:59.406Z,0.55
2023-05-04T22:44:27.098Z,1.50
2023-05-04T22:46:54.668Z,0.50
2023-05-04T22:49:22.252Z,1.45
2023-05-04T22:51:49.816Z,0.43
2023-05-04T22:54:17.399Z,3.78
2023-05-04T22:56:45.156Z,0.40
2023-05-04T22:59:12.943Z,0.68
2023-05-04T23:01:43.808Z,0.28
2023-05-04T23:04:12.170Z,0.45
2023-05-04T23:06:39.978Z,0.47
2023-05-04T23:09:07.650Z,0.63
2023-05-04T23:11:35.248Z,0.38
2023-05-04T23:14:02.843Z,0.28
2023-05-04T23:16:30.449Z,0.30
2023-05-04T23:18:58.671Z,0.55
2023-05-04T23:21:26.156Z,0.85
2023-05-04T23:23:53.994Z,0.28
2023-05-04T23:26:21.791Z,0.50
2023-05-04T23:28:49.307Z,0.55
2023-05-04T23:31:16.988Z,1.55
2023-05-04T23:33:44.667Z,0.70
2023-05-04T23:36:14.821Z,1.75
2023-05-04T23:38:42.286Z,0.77
2023-05-04T23:41:09.883Z,1.08
2023-05-04T23:43:37.442Z,0.77
2023-05-04T23:46:05.642Z,0.65
2023-05-04T23:48:33.338Z,0.88
2023-05-04T23:51:05.123Z,2.22
2023-05-04T23:53:32.914Z,0.30
2023-05-04T23:56:03.538Z,1.58
2023-05-04T23:58:32.190Z,2.08
